.
WxDataArchive / Data Records for 2011-03-25
2011-03-24 March 2011 2011-03-26

Data Records for Friday, 25 March 2011

Time	Temp	Chill	HIndex	Humid	Dewpt	 Wind 	HiWind	WindDir	Rain 	Barom 
-----	----	-----	------	-----	-----	------	------	-------	-----	----- 
00:00	28.5	28.5	28.5	69	19.6	0	0	---	0.00	30.123 
00:05	28.4	28.4	28.4	69	19.5	0	0	---	0.00	30.123 
00:10	28.4	28.4	28.4	69	19.5	0	0	---	0.00	30.123 
00:15	28.2	28.2	28.2	69	19.4	0	1	270	0.00	30.126 
00:20	28.2	28.2	28.2	69	19.4	0	1	270	0.00	30.126 
00:25	28.1	28.1	28.1	69	19.3	0	1	270	0.00	30.126 
00:30	28.1	28.1	28.1	69	19.3	0	1	270	0.00	30.121 
00:35	27.9	27.9	27.9	69	19.1	0	0	---	0.00	30.121 
00:40	27.8	27.8	27.8	69	19.0	0	0	---	0.00	30.121 
00:45	27.6	27.6	27.6	70	19.1	0	0	---	0.00	30.117 
00:50	27.5	27.5	27.5	70	19.0	0	0	---	0.00	30.117 
00:55	27.3	27.3	27.3	70	18.8	0	0	---	0.00	30.117 
01:00	27.2	27.2	27.2	71	19.1	0	0	---	0.00	30.120 
01:05	27.0	27.0	27.0	71	18.9	0	0	---	0.00	30.120 
01:10	26.9	26.9	26.9	72	19.1	0	1	270	0.00	30.120 
01:15	26.7	26.7	26.7	72	18.9	0	0	---	0.00	30.119 
01:20	26.6	26.6	26.6	73	19.1	0	0	---	0.00	30.119 
01:25	26.6	26.6	26.6	73	19.1	0	0	---	0.00	30.119 
01:30	26.6	26.6	26.6	73	19.1	0	0	---	0.00	30.126 
01:35	26.4	26.4	26.4	74	19.3	0	0	---	0.00	30.126 
01:40	26.3	26.3	26.3	74	19.2	0	0	---	0.00	30.126 
01:45	26.1	26.1	26.1	74	19.0	0	0	---	0.00	30.128 
01:50	26.0	26.0	26.0	75	19.2	0	0	---	0.00	30.128 
01:55	25.8	25.8	25.8	75	19.0	0	0	---	0.00	30.128 
02:00	25.8	25.8	25.8	76	19.3	0	0	---	0.00	30.137 
02:05	25.8	25.8	25.8	76	19.3	0	0	---	0.00	30.137 
02:10	25.8	25.8	25.8	76	19.3	0	0	---	0.00	30.137 
02:15	26.0	26.0	26.0	77	19.8	0	0	---	0.00	30.141 
02:20	26.0	26.0	26.0	77	19.8	0	0	---	0.00	30.141 
02:25	26.1	26.1	26.1	77	19.9	0	0	---	0.00	30.141 
02:30	26.3	26.3	26.3	77	20.1	0	1	270	0.00	30.145 
02:35	26.4	26.4	26.4	77	20.2	0	1	270	0.00	30.145 
02:40	26.6	26.6	26.6	77	20.4	0	0	---	0.00	30.145 
02:45	26.6	26.6	26.6	77	20.4	0	0	---	0.00	30.149 
02:50	26.7	26.7	26.7	77	20.5	0	0	---	0.00	30.149 
02:55	26.7	26.7	26.7	77	20.5	0	0	---	0.00	30.149 
03:00	26.7	26.7	26.7	77	20.5	0	0	---	0.00	30.144 
03:05	26.7	26.7	26.7	77	20.5	0	0	---	0.00	30.144 
03:10	26.6	26.6	26.6	77	20.4	0	1	270	0.00	30.144 
03:15	26.4	26.4	26.4	77	20.2	0	0	---	0.00	30.143 
03:20	26.4	26.4	26.4	76	19.9	0	0	---	0.00	30.143 
03:25	26.1	26.1	26.1	76	19.6	0	0	---	0.00	30.143 
03:30	26.0	26.0	26.0	76	19.5	0	0	---	0.00	30.148 
03:35	25.8	25.8	25.8	77	19.6	0	0	---	0.00	30.148 
03:40	25.7	25.7	25.7	77	19.5	0	1	270	0.00	30.148 
03:45	25.6	25.6	25.6	77	19.4	0	0	---	0.00	30.153 
03:50	25.4	25.4	25.4	77	19.2	0	0	---	0.00	30.153 
03:55	25.3	25.3	25.3	78	19.4	0	0	---	0.00	30.153 
04:00	25.1	25.1	25.1	78	19.2	0	0	---	0.00	30.154 
04:05	25.1	25.1	25.1	79	19.5	0	0	---	0.00	30.154 
04:10	25.1	25.1	25.1	79	19.5	0	0	---	0.00	30.154 
04:15	25.3	25.3	25.3	80	20.0	0	0	---	0.00	30.150 
04:20	25.4	25.4	25.4	79	19.8	0	1	270	0.00	30.150 
04:25	25.4	25.4	25.4	79	19.8	0	1	270	0.00	30.150 
04:30	25.6	25.6	25.6	79	20.0	0	1	270	0.00	30.151 
04:35	25.6	25.6	25.6	78	19.7	0	1	270	0.00	30.151 
04:40	25.6	25.6	25.6	78	19.7	0	0	---	0.00	30.151 
04:45	25.6	25.6	25.6	78	19.7	0	1	270	0.00	30.149 
04:50	25.6	25.6	25.6	77	19.4	0	1	270	0.00	30.149 
04:55	25.4	25.4	25.4	77	19.2	0	1	270	0.00	30.149 
05:00	25.4	25.4	25.4	78	19.5	0	1	270	0.00	30.149 
05:05	25.3	25.3	25.3	78	19.4	0	1	270	0.00	30.149 
05:10	25.3	25.3	25.3	78	19.4	0	1	270	0.00	30.149 
05:15	25.1	25.1	25.1	78	19.2	0	1	270	0.00	30.136 
05:20	25.0	25.0	25.0	78	19.1	0	1	270	0.00	30.136 
05:25	24.8	24.8	24.8	78	18.9	0	2	270	0.00	30.136 
05:30	24.8	24.8	24.8	79	19.2	0	1	270	0.00	30.133 
05:35	24.7	24.7	24.7	79	19.1	0	1	270	0.00	30.133 
05:40	24.7	24.7	24.7	79	19.1	0	0	---	0.00	30.133 
05:45	24.5	24.5	24.5	79	18.9	0	1	270	0.00	30.123 
05:50	24.4	24.4	24.4	80	19.1	0	1	270	0.00	30.123 
05:55	24.4	24.4	24.4	80	19.1	0	1	270	0.00	30.123 
06:00	24.2	24.2	24.2	80	18.9	0	1	270	0.00	30.116 
06:05	24.2	24.2	24.2	80	18.9	0	1	270	0.00	30.116 
06:10	24.2	24.2	24.2	80	18.9	0	0	---	0.00	30.116 
06:15	24.2	24.2	24.2	80	18.9	0	1	270	0.00	30.104 
06:20	24.2	24.2	24.2	81	19.2	0	1	270	0.00	30.104 
06:25	24.2	24.2	24.2	81	19.2	0	2	270	0.00	30.104 
06:30	24.2	24.2	24.2	81	19.2	0	1	270	0.00	30.089 
06:35	24.2	24.2	24.2	81	19.2	0	1	270	0.00	30.089 
06:40	24.2	24.2	24.2	81	19.2	0	0	---	0.00	30.089 
06:45	24.2	24.2	24.2	81	19.2	0	0	---	0.00	30.101 
06:50	24.2	24.2	24.2	81	19.2	0	0	---	0.00	30.101 
06:55	24.1	24.1	24.1	81	19.1	0	0	---	0.00	30.101 
07:00	24.1	24.1	24.1	81	19.1	0	0	---	0.00	30.119 
07:05	24.1	24.1	24.1	81	19.1	0	0	---	0.00	30.119 
07:10	24.1	24.1	24.1	81	19.1	0	0	---	0.00	30.119 
07:15	23.9	23.9	23.9	81	18.9	0	0	---	0.00	30.131 
07:20	23.9	23.9	23.9	82	19.2	0	0	---	0.00	30.131 
07:25	23.9	23.9	23.9	82	19.2	0	1	270	0.00	30.131 
07:30	23.9	23.9	23.9	82	19.2	0	1	270	0.00	30.133 
07:35	23.9	23.9	23.9	82	19.2	0	1	270	0.00	30.133 
07:40	23.9	23.9	23.9	82	19.2	0	1	270	0.00	30.133 
07:45	23.9	23.9	23.9	82	19.2	0	0	---	0.00	30.125 
07:50	24.1	24.1	24.1	82	19.4	0	0	---	0.00	30.125 
07:55	24.1	24.1	24.1	82	19.4	0	0	---	0.00	30.125 
08:00	24.1	24.1	24.1	82	19.4	0	0	---	0.00	30.121 
08:05	24.1	24.1	24.1	82	19.4	0	0	---	0.00	30.121 
08:10	24.1	24.1	24.1	82	19.4	0	0	---	0.00	30.121 
08:15	24.2	24.2	24.2	82	19.5	0	0	---	0.00	30.119 
08:20	24.4	24.4	24.4	82	19.7	0	1	270	0.00	30.119 
08:25	24.5	24.5	24.5	82	19.8	0	0	---	0.00	30.119 
08:30	24.8	24.8	24.8	82	20.1	0	0	---	0.00	30.119 
08:35	25.0	25.0	25.0	82	20.3	0	1	270	0.00	30.119 
08:40	25.3	25.3	25.3	82	20.6	0	1	270	0.00	30.119 
08:45	25.4	25.4	25.4	82	20.7	0	0	---	0.00	30.122 
08:50	25.6	25.6	25.6	82	20.9	0	2	270	0.00	30.122 
08:55	25.7	25.7	25.7	82	21.0	0	1	270	0.00	30.122 
09:00	26.0	26.0	26.0	81	21.0	0	2	270	0.00	30.122 
09:05	26.1	26.1	26.1	81	21.1	0	1	270	0.00	30.122 
09:10	26.3	26.3	26.3	81	21.3	0	1	270	0.00	30.122 
09:15	26.4	26.4	26.4	81	21.4	0	1	270	0.00	30.122 
09:20	26.6	26.6	26.6	81	21.6	0	2	270	0.00	30.122 
09:25	26.7	26.7	26.7	80	21.4	0	2	270	0.00	30.122 
09:30	26.9	26.9	26.9	80	21.6	1	3	270	0.00	30.122 
09:35	27.0	27.0	27.0	79	21.4	0	2	248	0.00	30.122 
09:40	27.3	27.3	27.3	79	21.7	1	6	248	0.00	30.122 
09:45	27.5	27.5	27.5	78	21.6	1	4	45	0.00	30.123 
09:50	27.6	27.6	27.6	78	21.7	0	2	112	0.00	30.123 
09:55	27.9	27.9	27.9	77	21.6	0	3	90	0.00	30.123 
10:00	28.1	28.1	28.1	77	21.8	0	2	45	0.00	30.128 
10:05	28.2	28.2	28.2	76	21.6	1	4	68	0.00	30.128 
10:10	28.5	28.5	28.5	76	21.9	1	4	112	0.00	30.128 
10:15	28.7	28.7	28.7	74	21.5	1	5	90	0.00	30.129 
10:20	28.8	28.8	28.8	74	21.6	1	4	112	0.00	30.129 
10:25	28.8	28.8	28.8	74	21.6	1	5	90	0.00	30.129 
10:30	28.8	28.8	28.8	74	21.6	2	5	90	0.00	30.124 
10:35	28.8	28.8	28.8	73	21.3	3	5	90	0.00	30.124 
10:40	28.8	28.8	28.8	72	20.9	3	6	90	0.00	30.124 
10:45	29.0	29.0	29.0	72	21.1	1	3	68	0.00	30.125 
10:50	29.4	29.4	29.4	72	21.5	1	4	90	0.00	30.125 
10:55	29.5	29.5	29.5	70	20.9	1	5	90	0.00	30.125 
11:00	29.7	29.7	29.7	69	20.8	2	5	90	0.00	30.132 
11:05	29.7	29.7	29.7	69	20.8	2	6	90	0.00	30.132 
11:10	29.5	25.2	29.5	68	20.3	4	7	90	0.00	30.132 
11:15	29.7	29.7	29.7	69	20.8	2	7	90	0.00	30.129 
11:20	30.0	30.0	30.0	68	20.7	3	7	90	0.00	30.129 
11:25	30.0	30.0	30.0	68	20.7	3	5	90	0.00	30.129 
11:30	29.8	29.8	29.8	66	19.8	2	5	112	0.00	30.134 
11:35	30.0	30.0	30.0	67	20.4	3	7	112	0.00	30.134 
11:40	30.1	30.1	30.1	66	20.1	3	7	90	0.00	30.134 
11:45	30.6	30.6	30.6	67	21.0	1	7	90	0.00	30.116 
11:50	30.9	30.9	30.9	65	20.5	3	9	90	0.00	30.116 
11:55	30.7	30.7	30.7	64	20.0	2	6	90	0.00	30.116 
12:00	31.0	31.0	31.0	64	20.3	2	7	112	0.00	30.130 
12:05	31.0	31.0	31.0	63	19.9	3	6	90	0.00	30.130 
12:10	31.0	31.0	31.0	62	19.5	2	6	90	0.00	30.130 
12:15	31.0	31.0	31.0	61	19.1	1	4	90	0.00	30.138 
12:20	31.2	31.2	31.2	62	19.7	1	5	90	0.00	30.138 
12:25	31.5	31.5	31.5	59	18.8	2	5	90	0.00	30.138 
12:30	32.1	32.1	32.1	60	19.8	0	2	90	0.00	30.134 
12:35	32.2	32.2	32.2	57	18.7	1	4	68	0.00	30.134 
12:40	32.4	32.4	32.4	58	19.3	1	5	112	0.00	30.134 
12:45	32.2	32.2	32.2	58	19.1	2	6	90	0.00	30.134 
12:50	32.7	32.7	32.7	58	19.6	1	5	112	0.00	30.134 
12:55	32.9	32.9	32.9	56	18.9	2	5	112	0.00	30.134 
13:00	33.5	33.5	33.5	58	20.3	2	6	90	0.00	30.134 
13:05	34.1	34.1	34.1	56	20.1	2	7	90	0.00	30.134 
13:10	34.0	34.0	34.0	54	19.1	2	4	112	0.00	30.134 
13:15	33.5	33.5	33.5	56	19.5	1	6	112	0.00	30.125 
13:20	33.2	33.2	33.2	58	20.0	1	5	112	0.00	30.125 
13:25	33.2	33.2	33.2	59	20.4	1	3	112	0.00	30.125 
13:30	33.2	33.2	33.2	60	20.8	0	3	112	0.00	30.122 
13:35	33.1	33.1	33.1	62	21.5	1	4	45	0.00	30.122 
13:40	32.9	32.9	32.9	63	21.7	1	4	45	0.00	30.122 
13:45	33.1	33.1	33.1	63	21.9	1	3	112	0.00	30.121 
13:50	33.2	33.2	33.2	63	22.0	0	3	112	0.00	30.121 
13:55	34.0	34.0	34.0	63	22.7	1	5	45	0.00	30.121 
14:00	34.6	34.6	34.6	63	23.3	1	5	112	0.00	30.115 
14:05	34.7	34.7	34.7	62	23.0	1	5	112	0.00	30.115 
14:10	34.6	34.6	34.6	61	22.6	1	3	90	0.00	30.115 
14:15	34.1	34.1	34.1	61	22.1	1	2	338	0.00	30.107 
14:20	34.3	34.3	34.3	62	22.7	1	4	68	0.00	30.107 
14:25	34.4	34.4	34.4	60	22.0	0	2	22	0.00	30.107 
14:30	34.4	34.4	34.4	60	22.0	1	4	135	0.00	30.105 
14:35	34.4	34.4	34.4	59	21.6	0	2	68	0.00	30.105 
14:40	34.7	34.7	34.7	61	22.6	0	3	68	0.00	30.105 
14:45	34.9	34.9	34.9	60	22.4	1	3	68	0.00	30.100 
14:50	34.6	34.6	34.6	60	22.2	2	6	90	0.00	30.100 
14:55	35.0	35.0	35.0	62	23.3	1	5	22	0.00	30.100 
15:00	34.7	34.7	34.7	58	21.5	2	6	90	0.00	30.094 
15:05	34.4	34.4	34.4	58	21.2	2	6	112	0.00	30.094 
15:10	34.3	34.3	34.3	57	20.7	0	2	112	0.00	30.094 
15:15	34.4	34.4	34.4	57	20.8	1	6	22	0.00	30.093 
15:20	34.1	34.1	34.1	56	20.1	2	6	112	0.00	30.093 
15:25	34.3	34.3	34.3	56	20.3	0	1	112	0.00	30.093 
15:30	34.1	34.1	34.1	55	19.6	1	3	112	0.00	30.090 
15:35	34.3	34.3	34.3	53	19.0	0	2	22	0.00	30.090 
15:40	34.3	34.3	34.3	53	19.0	0	6	22	0.00	30.090 
15:45	34.9	34.9	34.9	54	20.0	1	5	315	0.00	30.088 
15:50	35.2	35.2	35.2	53	19.8	0	2	315	0.00	30.088 
15:55	35.8	35.8	35.8	52	19.9	0	2	112	0.00	30.088 
16:00	35.9	35.9	35.9	47	17.7	1	4	0	0.00	30.082 
16:05	36.0	36.0	36.0	47	17.7	1	4	338	0.00	30.082 
16:10	36.3	36.3	36.3	47	18.0	1	2	338	0.00	30.082 
16:15	36.5	36.5	36.5	48	18.7	1	5	0	0.00	30.073 
16:20	36.6	36.6	36.6	46	17.8	1	3	90	0.00	30.073 
16:25	36.8	36.8	36.8	47	18.5	1	2	270	0.00	30.073 
16:30	37.0	37.0	37.0	46	18.2	1	5	90	0.00	30.073 
16:35	37.3	37.3	37.3	45	17.9	0	3	112	0.00	30.073 
16:40	37.2	37.2	37.2	42	16.2	1	4	112	0.00	30.073 
16:45	37.2	37.2	37.2	43	16.8	1	7	112	0.00	30.073 
16:50	37.0	37.0	37.0	43	16.6	2	6	112	0.00	30.073 
16:55	36.6	36.6	36.6	42	15.7	1	3	112	0.00	30.073 
17:00	36.6	36.6	36.6	41	15.2	1	3	112	0.00	30.077 
17:05	36.9	36.9	36.9	40	14.9	1	5	338	0.00	30.077 
17:10	37.0	37.0	37.0	41	15.5	0	3	248	0.00	30.077 
17:15	37.2	37.2	37.2	39	14.6	1	2	248	0.00	30.079 
17:20	37.3	37.3	37.3	39	14.6	0	3	248	0.00	30.079 
17:25	37.3	37.3	37.3	37	13.4	1	6	112	0.00	30.079 
17:30	37.0	37.0	37.0	39	14.4	1	4	112	0.00	30.076 
17:35	37.3	37.3	37.3	36	12.8	0	3	90	0.00	30.076 
17:40	37.6	37.6	37.6	34	11.8	1	3	0	0.00	30.076 
17:45	37.6	37.6	37.6	34	11.8	0	1	22	0.00	30.076 
17:50	37.6	37.6	37.6	35	12.5	0	3	22	0.00	30.076 
17:55	37.5	37.5	37.5	35	12.4	1	4	22	0.00	30.076 
18:00	37.5	37.5	37.5	35	12.4	1	5	135	0.00	30.075 
18:05	37.2	37.2	37.2	35	12.1	1	4	112	0.00	30.075 
18:10	37.2	37.2	37.2	34	11.4	1	3	338	0.00	30.075 
18:15	37.0	37.0	37.0	35	11.9	1	4	22	0.00	30.076 
18:20	36.9	36.9	36.9	32	9.8	1	3	0	0.00	30.076 
18:25	36.9	36.9	36.9	32	9.8	0	2	0	0.00	30.076 
18:30	36.6	36.6	36.6	32	9.6	0	3	135	0.00	30.087 
18:35	36.5	36.5	36.5	31	8.8	0	2	68	0.00	30.087 
18:40	36.5	36.5	36.5	31	8.8	0	2	68	0.00	30.087 
18:45	36.3	36.3	36.3	31	8.6	0	2	68	0.00	30.091 
18:50	36.2	36.2	36.2	30	7.8	0	3	90	0.00	30.091 
18:55	36.0	36.0	36.0	32	9.0	0	1	22	0.00	30.091 
19:00	35.9	35.9	35.9	33	9.6	0	2	22	0.00	30.089 
19:05	35.8	35.8	35.8	32	8.9	0	2	45	0.00	30.089 
19:10	35.6	35.6	35.6	34	10.0	0	1	45	0.00	30.089 
19:15	35.5	35.5	35.5	36	11.2	0	2	68	0.00	30.091 
19:20	35.3	35.3	35.3	36	11.0	0	1	68	0.00	30.091 
19:25	35.0	35.0	35.0	37	11.4	0	2	68	0.00	30.091 
19:30	34.7	34.7	34.7	38	11.7	0	1	68	0.00	30.097 
19:35	34.6	34.6	34.6	39	12.2	0	3	45	0.00	30.097 
19:40	34.3	34.3	34.3	41	13.1	0	1	45	0.00	30.097 
19:45	34.1	34.1	34.1	41	12.9	0	2	45	0.00	30.094 
19:50	33.8	33.8	33.8	42	13.2	0	2	45	0.00	30.094 
19:55	33.7	33.7	33.7	42	13.1	0	1	45	0.00	30.094 
20:00	33.4	33.4	33.4	43	13.3	0	3	68	0.00	30.093 
20:05	33.2	33.2	33.2	43	13.2	0	1	68	0.00	30.093 
20:10	32.9	32.9	32.9	45	13.9	0	1	68	0.00	30.093 
20:15	32.7	32.7	32.7	44	13.2	0	1	68	0.00	30.099 
20:20	32.5	32.5	32.5	44	13.0	0	1	68	0.00	30.099 
20:25	32.2	32.2	32.2	45	13.3	0	0	---	0.00	30.099 
20:30	32.1	32.1	32.1	45	13.2	0	0	---	0.00	30.104 
20:35	31.8	31.8	31.8	46	13.4	0	0	---	0.00	30.104 
20:40	31.6	31.6	31.6	46	13.2	0	3	45	0.00	30.104 
20:45	31.6	31.6	31.6	46	13.2	0	1	45	0.00	30.109 
20:50	31.6	31.6	31.6	46	13.2	0	1	45	0.00	30.109 
20:55	31.5	31.5	31.5	47	13.6	0	0	---	0.00	30.109 
21:00	31.3	31.3	31.3	48	13.9	0	0	---	0.00	30.110 
21:05	31.2	31.2	31.2	48	13.8	0	0	---	0.00	30.110 
21:10	30.9	30.9	30.9	49	14.0	0	1	45	0.00	30.110 
21:15	30.6	30.6	30.6	50	14.2	0	0	---	0.00	30.113 
21:20	30.4	30.4	30.4	50	14.0	0	0	---	0.00	30.113 
21:25	30.3	30.3	30.3	50	13.9	0	1	45	0.00	30.113 
21:30	30.3	30.3	30.3	51	14.4	0	0	---	0.00	30.124 
21:35	30.1	30.1	30.1	51	14.2	0	2	45	0.00	30.124 
21:40	30.3	30.3	30.3	52	14.8	0	3	45	0.00	30.124 
21:45	30.3	30.3	30.3	52	14.8	0	2	90	0.00	30.129 
21:50	30.3	30.3	30.3	53	15.2	1	3	90	0.00	30.129 
21:55	30.3	30.3	30.3	53	15.2	0	3	90	0.00	30.129 
22:00	30.1	30.1	30.1	54	15.5	0	2	90	0.00	30.133 
22:05	30.0	30.0	30.0	55	15.8	0	1	90	0.00	30.133 
22:10	29.8	29.8	29.8	55	15.6	0	2	90	0.00	30.133 
22:15	29.7	29.7	29.7	56	15.9	0	2	90	0.00	30.133 
22:20	29.4	29.4	29.4	56	15.7	0	2	90	0.00	30.133 
22:25	29.4	29.4	29.4	55	15.3	1	4	90	0.00	30.133 
22:30	29.3	29.3	29.3	55	15.2	1	3	68	0.00	30.137 
22:35	29.3	29.3	29.3	55	15.2	1	5	90	0.00	30.137 
22:40	29.1	29.1	29.1	55	15.0	1	2	90	0.00	30.137 
22:45	29.0	29.0	29.0	55	14.9	0	2	45	0.00	30.139 
22:50	28.8	28.8	28.8	56	15.1	1	3	45	0.00	30.139 
22:55	28.7	28.7	28.7	55	14.6	1	3	112	0.00	30.139 
23:00	28.5	28.5	28.5	56	14.8	1	4	68	0.00	30.140 
23:05	28.4	28.4	28.4	56	14.7	1	3	68	0.00	30.140 
23:10	28.2	28.2	28.2	56	14.5	1	4	0	0.00	30.140 
23:15	28.1	28.1	28.1	55	14.0	1	4	112	0.00	30.142 
23:20	27.9	27.9	27.9	54	13.4	1	5	22	0.00	30.142 
23:25	27.8	27.8	27.8	54	13.3	1	3	68	0.00	30.142 
23:30	27.6	27.6	27.6	55	13.6	1	5	90	0.00	30.143 
23:35	27.5	27.5	27.5	55	13.5	0	2	90	0.00	30.143 
23:40	27.3	27.3	27.3	55	13.3	0	2	45	0.00	30.143 
23:45	27.2	27.2	27.2	55	13.2	1	4	112	0.00	30.151 
23:50	27.0	27.0	27.0	55	13.0	0	3	112	0.00	30.151 
23:55	26.9	26.9	26.9	55	12.9	0	2	45	0.00	30.151 

CoCoRaHS
IN-AL-39
A2 Web Hosting
Creative Commons License
GoDaddy
search engine by freefind advanced

loaded 2018-11-18 11:15:20 • last modified 2010-11-18 10:43:29
Privacy PolicyDisclaimer
• wx.awcolley.com is powered by PmWiki v.2002016 •
• all content (unless otherwise noted) © 2018 A W Colley